sensor_id;sensor_type;location;lat;lon;timestamp;P1;durP1;ratioP1;P2;durP2;ratioP2
30384;SDS011;17181;51.002;4.096;2023-06-10T00:00:41;10.83;;;6.20;;
30384;SDS011;17181;51.002;4.096;2023-06-10T00:03:07;9.17;;;5.93;;
30384;SDS011;17181;51.002;4.096;2023-06-10T00:05:34;7.77;;;5.10;;
30384;SDS011;17181;51.002;4.096;2023-06-10T00:08:01;10.30;;;6.33;;
30384;SDS011;17181;51.002;4.096;2023-06-10T00:10:33;14.97;;;6.43;;
30384;SDS011;17181;51.002;4.096;2023-06-10T00:13:00;10.33;;;6.30;;
30384;SDS011;17181;51.002;4.096;2023-06-10T00:15:30;17.67;;;5.60;;
30384;SDS011;17181;51.002;4.096;2023-06-10T00:17:56;7.40;;;5.73;;
30384;SDS011;17181;51.002;4.096;2023-06-10T00:20:22;8.43;;;5.90;;
30384;SDS011;17181;51.002;4.096;2023-06-10T00:22:52;14.33;;;6.57;;
30384;SDS011;17181;51.002;4.096;2023-06-10T00:25:18;7.23;;;6.40;;
30384;SDS011;17181;51.002;4.096;2023-06-10T00:27:44;9.37;;;5.43;;
30384;SDS011;17181;51.002;4.096;2023-06-10T00:30:10;8.23;;;5.90;;
30384;SDS011;17181;51.002;4.096;2023-06-10T00:32:36;6.70;;;5.80;;
30384;SDS011;17181;51.002;4.096;2023-06-10T00:35:03;12.57;;;5.93;;
30384;SDS011;17181;51.002;4.096;2023-06-10T00:37:30;9.47;;;6.50;;
30384;SDS011;17181;51.002;4.096;2023-06-10T00:39:57;8.73;;;6.50;;
30384;SDS011;17181;51.002;4.096;2023-06-10T00:42:24;7.63;;;5.97;;
30384;SDS011;17181;51.002;4.096;2023-06-10T00:44:50;6.13;;;5.53;;
30384;SDS011;17181;51.002;4.096;2023-06-10T00:47:16;6.20;;;5.60;;
30384;SDS011;17181;51.002;4.096;2023-06-10T00:49:43;9.30;;;6.30;;
30384;SDS011;17181;51.002;4.096;2023-06-10T00:52:10;18.77;;;6.20;;
30384;SDS011;17181;51.002;4.096;2023-06-10T00:54:37;7.23;;;5.53;;
30384;SDS011;17181;51.002;4.096;2023-06-10T00:57:05;8.33;;;5.33;;
30384;SDS011;17181;51.002;4.096;2023-06-10T00:59:34;6.77;;;5.70;;
30384;SDS011;17181;51.002;4.096;2023-06-10T01:02:00;6.77;;;6.07;;
30384;SDS011;17181;51.002;4.096;2023-06-10T01:04:28;6.33;;;5.27;;
30384;SDS011;17181;51.002;4.096;2023-06-10T01:15:32;6.00;;;5.40;;
30384;SDS011;17181;51.002;4.096;2023-06-10T01:18:03;8.13;;;6.33;;
30384;SDS011;17181;51.002;4.096;2023-06-10T01:20:33;7.63;;;5.80;;
30384;SDS011;17181;51.002;4.096;2023-06-10T01:23:02;9.33;;;6.30;;
30384;SDS011;17181;51.002;4.096;2023-06-10T01:25:29;15.37;;;6.20;;
30384;SDS011;17181;51.002;4.096;2023-06-10T01:33:34;6.93;;;6.23;;
30384;SDS011;17181;51.002;4.096;2023-06-10T01:36:02;9.70;;;6.97;;
30384;SDS011;17181;51.002;4.096;2023-06-10T01:38:32;11.50;;;6.63;;
30384;SDS011;17181;51.002;4.096;2023-06-10T01:41:03;11.00;;;5.90;;
30384;SDS011;17181;51.002;4.096;2023-06-10T01:43:32;9.60;;;6.77;;
30384;SDS011;17181;51.002;4.096;2023-06-10T01:46:02;11.23;;;6.10;;
30384;SDS011;17181;51.002;4.096;2023-06-10T01:48:29;7.20;;;6.20;;
30384;SDS011;17181;51.002;4.096;2023-06-10T01:50:55;7.60;;;6.43;;
30384;SDS011;17181;51.002;4.096;2023-06-10T01:53:23;8.57;;;7.00;;
30384;SDS011;17181;51.002;4.096;2023-06-10T01:55:49;13.70;;;7.43;;
30384;SDS011;17181;51.002;4.096;2023-06-10T01:58:16;7.37;;;5.90;;
30384;SDS011;17181;51.002;4.096;2023-06-10T02:00:42;8.50;;;7.40;;
30384;SDS011;17181;51.002;4.096;2023-06-10T02:03:08;9.47;;;7.13;;
30384;SDS011;17181;51.002;4.096;2023-06-10T02:05:34;7.83;;;6.07;;
30384;SDS011;17181;51.002;4.096;2023-06-10T02:08:00;10.43;;;7.03;;
30384;SDS011;17181;51.002;4.096;2023-06-10T02:10:26;9.13;;;6.57;;
30384;SDS011;17181;51.002;4.096;2023-06-10T02:12:52;17.90;;;6.93;;
30384;SDS011;17181;51.002;4.096;2023-06-10T02:15:18;10.20;;;6.57;;
30384;SDS011;17181;51.002;4.096;2023-06-10T02:17:45;8.57;;;6.53;;
30384;SDS011;17181;51.002;4.096;2023-06-10T02:20:11;9.07;;;6.20;;
30384;SDS011;17181;51.002;4.096;2023-06-10T02:22:38;9.17;;;6.33;;
30384;SDS011;17181;51.002;4.096;2023-06-10T02:25:07;8.30;;;6.27;;
30384;SDS011;17181;51.002;4.096;2023-06-10T02:27:33;9.63;;;6.53;;
30384;SDS011;17181;51.002;4.096;2023-06-10T02:29:59;8.33;;;6.30;;
30384;SDS011;17181;51.002;4.096;2023-06-10T02:32:25;7.53;;;6.43;;
30384;SDS011;17181;51.002;4.096;2023-06-10T02:34:52;13.57;;;7.03;;
30384;SDS011;17181;51.002;4.096;2023-06-10T02:37:21;11.53;;;6.90;;
30384;SDS011;17181;51.002;4.096;2023-06-10T02:39:46;8.33;;;6.30;;
30384;SDS011;17181;51.002;4.096;2023-06-10T02:42:12;9.53;;;6.40;;
30384;SDS011;17181;51.002;4.096;2023-06-10T02:44:38;7.60;;;6.80;;
30384;SDS011;17181;51.002;4.096;2023-06-10T02:47:07;9.10;;;6.60;;
30384;SDS011;17181;51.002;4.096;2023-06-10T02:49:35;12.03;;;7.70;;
30384;SDS011;17181;51.002;4.096;2023-06-10T02:52:01;8.63;;;6.33;;
30384;SDS011;17181;51.002;4.096;2023-06-10T02:54:26;20.10;;;7.37;;
30384;SDS011;17181;51.002;4.096;2023-06-10T02:56:54;7.20;;;6.20;;
30384;SDS011;17181;51.002;4.096;2023-06-10T02:59:25;9.03;;;7.50;;
30384;SDS011;17181;51.002;4.096;2023-06-10T03:01:54;9.67;;;7.33;;
30384;SDS011;17181;51.002;4.096;2023-06-10T03:04:21;8.80;;;6.73;;
30384;SDS011;17181;51.002;4.096;2023-06-10T03:06:56;7.80;;;6.63;;
30384;SDS011;17181;51.002;4.096;2023-06-10T03:09:28;18.57;;;7.33;;
30384;SDS011;17181;51.002;4.096;2023-06-10T03:11:56;16.23;;;7.83;;
30384;SDS011;17181;51.002;4.096;2023-06-10T03:14:23;15.43;;;7.43;;
30384;SDS011;17181;51.002;4.096;2023-06-10T03:16:51;16.83;;;7.20;;
30384;SDS011;17181;51.002;4.096;2023-06-10T03:19:20;8.87;;;6.77;;
30384;SDS011;17181;51.002;4.096;2023-06-10T03:21:49;9.27;;;7.60;;
30384;SDS011;17181;51.002;4.096;2023-06-10T03:24:32;13.83;;;7.43;;
30384;SDS011;17181;51.002;4.096;2023-06-10T03:27:02;18.43;;;8.23;;
30384;SDS011;17181;51.002;4.096;2023-06-10T03:29:30;10.83;;;7.30;;
30384;SDS011;17181;51.002;4.096;2023-06-10T03:31:57;12.50;;;8.17;;
30384;SDS011;17181;51.002;4.096;2023-06-10T03:34:23;15.13;;;7.73;;
30384;SDS011;17181;51.002;4.096;2023-06-10T03:36:50;11.73;;;7.50;;
30384;SDS011;17181;51.002;4.096;2023-06-10T03:39:16;12.30;;;8.00;;
30384;SDS011;17181;51.002;4.096;2023-06-10T03:41:41;8.47;;;7.23;;
30384;SDS011;17181;51.002;4.096;2023-06-10T03:44:09;11.07;;;8.60;;
30384;SDS011;17181;51.002;4.096;2023-06-10T03:46:35;8.23;;;6.90;;
30384;SDS011;17181;51.002;4.096;2023-06-10T03:49:02;11.33;;;6.67;;
30384;SDS011;17181;51.002;4.096;2023-06-10T03:51:29;13.87;;;7.10;;
30384;SDS011;17181;51.002;4.096;2023-06-10T03:53:55;8.07;;;6.90;;
30384;SDS011;17181;51.002;4.096;2023-06-10T03:56:21;10.30;;;7.83;;
30384;SDS011;17181;51.002;4.096;2023-06-10T03:58:48;9.17;;;7.30;;
30384;SDS011;17181;51.002;4.096;2023-06-10T04:01:14;11.43;;;6.97;;
30384;SDS011;17181;51.002;4.096;2023-06-10T04:03:40;13.33;;;8.60;;
30384;SDS011;17181;51.002;4.096;2023-06-10T04:06:07;15.07;;;8.90;;
30384;SDS011;17181;51.002;4.096;2023-06-10T04:08:33;10.27;;;7.33;;
30384;SDS011;17181;51.002;4.096;2023-06-10T04:10:59;13.03;;;7.70;;
30384;SDS011;17181;51.002;4.096;2023-06-10T04:13:28;10.07;;;7.77;;
30384;SDS011;17181;51.002;4.096;2023-06-10T04:15:57;11.53;;;7.77;;
30384;SDS011;17181;51.002;4.096;2023-06-10T04:18:24;9.93;;;6.80;;
30384;SDS011;17181;51.002;4.096;2023-06-10T04:20:53;9.70;;;6.83;;
30384;SDS011;17181;51.002;4.096;2023-06-10T04:23:21;14.20;;;7.30;;
30384;SDS011;17181;51.002;4.096;2023-06-10T04:25:54;14.17;;;6.73;;
30384;SDS011;17181;51.002;4.096;2023-06-10T04:28:20;16.30;;;7.90;;
30384;SDS011;17181;51.002;4.096;2023-06-10T04:30:46;9.00;;;7.00;;
30384;SDS011;17181;51.002;4.096;2023-06-10T04:33:12;10.50;;;7.77;;
30384;SDS011;17181;51.002;4.096;2023-06-10T04:35:39;11.47;;;8.93;;
30384;SDS011;17181;51.002;4.096;2023-06-10T04:38:07;8.53;;;7.60;;
30384;SDS011;17181;51.002;4.096;2023-06-10T04:40:33;10.73;;;7.90;;
30384;SDS011;17181;51.002;4.096;2023-06-10T04:42:59;14.70;;;7.93;;
30384;SDS011;17181;51.002;4.096;2023-06-10T04:45:25;14.47;;;7.77;;
30384;SDS011;17181;51.002;4.096;2023-06-10T04:47:51;9.17;;;6.80;;
30384;SDS011;17181;51.002;4.096;2023-06-10T04:50:17;13.70;;;7.97;;
30384;SDS011;17181;51.002;4.096;2023-06-10T04:52:43;10.37;;;7.57;;
30384;SDS011;17181;51.002;4.096;2023-06-10T04:55:12;11.93;;;6.97;;
30384;SDS011;17181;51.002;4.096;2023-06-10T04:57:38;16.10;;;8.10;;
30384;SDS011;17181;51.002;4.096;2023-06-10T05:00:03;11.53;;;7.97;;
30384;SDS011;17181;51.002;4.096;2023-06-10T05:02:31;8.17;;;6.53;;
30384;SDS011;17181;51.002;4.096;2023-06-10T05:04:57;10.30;;;7.30;;
30384;SDS011;17181;51.002;4.096;2023-06-10T05:07:23;13.67;;;7.77;;
30384;SDS011;17181;51.002;4.096;2023-06-10T05:09:49;12.27;;;7.27;;
30384;SDS011;17181;51.002;4.096;2023-06-10T05:12:14;9.30;;;7.77;;
30384;SDS011;17181;51.002;4.096;2023-06-10T05:14:40;14.80;;;7.93;;
30384;SDS011;17181;51.002;4.096;2023-06-10T05:17:06;11.97;;;7.00;;
30384;SDS011;17181;51.002;4.096;2023-06-10T05:19:32;8.67;;;7.73;;
30384;SDS011;17181;51.002;4.096;2023-06-10T05:21:58;10.80;;;8.20;;
30384;SDS011;17181;51.002;4.096;2023-06-10T05:24:23;17.87;;;7.43;;
30384;SDS011;17181;51.002;4.096;2023-06-10T05:26:49;9.17;;;8.17;;
30384;SDS011;17181;51.002;4.096;2023-06-10T05:29:15;12.43;;;7.57;;
30384;SDS011;17181;51.002;4.096;2023-06-10T05:31:41;12.20;;;7.77;;
30384;SDS011;17181;51.002;4.096;2023-06-10T05:34:07;12.37;;;7.33;;
30384;SDS011;17181;51.002;4.096;2023-06-10T05:36:33;10.40;;;7.90;;
30384;SDS011;17181;51.002;4.096;2023-06-10T05:38:59;11.30;;;8.13;;
30384;SDS011;17181;51.002;4.096;2023-06-10T05:41:25;11.67;;;8.50;;
30384;SDS011;17181;51.002;4.096;2023-06-10T05:43:51;12.53;;;7.87;;
30384;SDS011;17181;51.002;4.096;2023-06-10T05:46:17;10.53;;;7.27;;
30384;SDS011;17181;51.002;4.096;2023-06-10T05:48:44;11.07;;;7.83;;
30384;SDS011;17181;51.002;4.096;2023-06-10T05:51:14;11.37;;;6.50;;
30384;SDS011;17181;51.002;4.096;2023-06-10T05:53:53;9.70;;;7.77;;
30384;SDS011;17181;51.002;4.096;2023-06-10T05:58:57;9.60;;;7.50;;
30384;SDS011;17181;51.002;4.096;2023-06-10T06:01:54;13.90;;;6.90;;
30384;SDS011;17181;51.002;4.096;2023-06-10T06:04:20;11.33;;;8.20;;
30384;SDS011;17181;51.002;4.096;2023-06-10T06:06:49;8.63;;;6.70;;
30384;SDS011;17181;51.002;4.096;2023-06-10T07:04:07;12.00;;;5.93;;
30384;SDS011;17181;51.002;4.096;2023-06-10T07:06:33;8.23;;;6.23;;
30384;SDS011;17181;51.002;4.096;2023-06-10T07:50:39;9.43;;;6.28;;
30384;SDS011;17181;51.002;4.096;2023-06-10T07:53:05;8.27;;;6.68;;
30384;SDS011;17181;51.002;4.096;2023-06-10T07:55:31;17.60;;;5.80;;
30384;SDS011;17181;51.002;4.096;2023-06-10T07:57:57;6.60;;;5.88;;
30384;SDS011;17181;51.002;4.096;2023-06-10T08:00:23;7.95;;;6.60;;
30384;SDS011;17181;51.002;4.096;2023-06-10T08:02:49;8.73;;;6.50;;
30384;SDS011;17181;51.002;4.096;2023-06-10T08:05:15;7.68;;;5.95;;
30384;SDS011;17181;51.002;4.096;2023-06-10T08:07:44;6.05;;;5.38;;
30384;SDS011;17181;51.002;4.096;2023-06-10T08:10:10;7.78;;;4.55;;
30384;SDS011;17181;51.002;4.096;2023-06-10T08:12:36;9.60;;;4.95;;
30384;SDS011;17181;51.002;4.096;2023-06-10T08:15:02;6.15;;;5.20;;
30384;SDS011;17181;51.002;4.096;2023-06-10T08:17:31;15.73;;;5.88;;
30384;SDS011;17181;51.002;4.096;2023-06-10T08:19:57;9.40;;;5.40;;
30384;SDS011;17181;51.002;4.096;2023-06-10T08:22:29;7.65;;;4.78;;
30384;SDS011;17181;51.002;4.096;2023-06-10T08:24:55;9.38;;;5.65;;
30384;SDS011;17181;51.002;4.096;2023-06-10T08:27:21;8.32;;;5.38;;
30384;SDS011;17181;51.002;4.096;2023-06-10T08:29:47;8.13;;;5.63;;
30384;SDS011;17181;51.002;4.096;2023-06-10T08:32:13;6.57;;;5.35;;
30384;SDS011;17181;51.002;4.096;2023-06-10T08:34:39;8.13;;;5.70;;
30384;SDS011;17181;51.002;4.096;2023-06-10T08:42:41;6.32;;;5.45;;
30384;SDS011;17181;51.002;4.096;2023-06-10T08:46:00;5.68;;;4.75;;
30384;SDS011;17181;51.002;4.096;2023-06-10T08:48:44;7.68;;;5.28;;
30384;SDS011;17181;51.002;4.096;2023-06-10T08:51:51;17.30;;;6.03;;
30384;SDS011;17181;51.002;4.096;2023-06-10T08:54:28;7.20;;;5.07;;
30384;SDS011;17181;51.002;4.096;2023-06-10T08:57:01;7.00;;;5.70;;
30384;SDS011;17181;51.002;4.096;2023-06-10T08:59:31;4.53;;;4.13;;
30384;SDS011;17181;51.002;4.096;2023-06-10T09:01:57;6.32;;;4.95;;
30384;SDS011;17181;51.002;4.096;2023-06-10T09:04:23;6.78;;;4.65;;
30384;SDS011;17181;51.002;4.096;2023-06-10T09:06:49;9.18;;;5.40;;
30384;SDS011;17181;51.002;4.096;2023-06-10T09:09:17;8.70;;;5.75;;
30384;SDS011;17181;51.002;4.096;2023-06-10T09:11:45;6.75;;;4.63;;
30384;SDS011;17181;51.002;4.096;2023-06-10T09:14:11;5.32;;;4.82;;
30384;SDS011;17181;51.002;4.096;2023-06-10T09:16:38;5.65;;;4.90;;
30384;SDS011;17181;51.002;4.096;2023-06-10T09:19:04;8.05;;;5.03;;
30384;SDS011;17181;51.002;4.096;2023-06-10T09:21:33;5.75;;;4.97;;
30384;SDS011;17181;51.002;4.096;2023-06-10T09:24:01;4.78;;;4.15;;
30384;SDS011;17181;51.002;4.096;2023-06-10T09:26:30;5.35;;;4.70;;
30384;SDS011;17181;51.002;4.096;2023-06-10T09:29:03;6.20;;;5.22;;
30384;SDS011;17181;51.002;4.096;2023-06-10T09:31:30;4.88;;;4.38;;
30384;SDS011;17181;51.002;4.096;2023-06-10T09:34:09;8.40;;;3.58;;
30384;SDS011;17181;51.002;4.096;2023-06-10T09:36:35;4.82;;;4.35;;
30384;SDS011;17181;51.002;4.096;2023-06-10T09:39:02;4.78;;;4.38;;
30384;SDS011;17181;51.002;4.096;2023-06-10T09:41:34;5.10;;;4.70;;
30384;SDS011;17181;51.002;4.096;2023-06-10T09:44:01;6.53;;;5.07;;
30384;SDS011;17181;51.002;4.096;2023-06-10T09:46:33;5.40;;;4.70;;
30384;SDS011;17181;51.002;4.096;2023-06-10T09:48:59;6.32;;;4.65;;
30384;SDS011;17181;51.002;4.096;2023-06-10T09:51:27;4.60;;;4.07;;
30384;SDS011;17181;51.002;4.096;2023-06-10T09:54:00;4.50;;;3.85;;
30384;SDS011;17181;51.002;4.096;2023-06-10T10:48:51;5.60;;;3.75;;
30384;SDS011;17181;51.002;4.096;2023-06-10T10:51:22;8.90;;;4.22;;
30384;SDS011;17181;51.002;4.096;2023-06-10T10:54:09;4.13;;;3.58;;
30384;SDS011;17181;51.002;4.096;2023-06-10T10:56:36;6.28;;;4.07;;
30384;SDS011;17181;51.002;4.096;2023-06-10T10:59:24;7.25;;;3.95;;
30384;SDS011;17181;51.002;4.096;2023-06-10T11:02:16;4.47;;;3.83;;
30384;SDS011;17181;51.002;4.096;2023-06-10T11:05:16;5.25;;;4.18;;
30384;SDS011;17181;51.002;4.096;2023-06-10T11:07:53;6.30;;;3.45;;
30384;SDS011;17181;51.002;4.096;2023-06-10T11:10:29;3.45;;;3.15;;
30384;SDS011;17181;51.002;4.096;2023-06-10T11:13:12;3.33;;;3.13;;
30384;SDS011;17181;51.002;4.096;2023-06-10T11:15:43;4.85;;;3.58;;
30384;SDS011;17181;51.002;4.096;2023-06-10T11:32:20;5.53;;;2.88;;
30384;SDS011;17181;51.002;4.096;2023-06-10T11:34:51;5.35;;;2.78;;
30384;SDS011;17181;51.002;4.096;2023-06-10T11:37:18;5.13;;;3.20;;
30384;SDS011;17181;51.002;4.096;2023-06-10T11:39:44;4.97;;;3.45;;
30384;SDS011;17181;51.002;4.096;2023-06-10T11:42:11;4.75;;;3.95;;
30384;SDS011;17181;51.002;4.096;2023-06-10T11:44:43;4.28;;;3.47;;
30384;SDS011;17181;51.002;4.096;2023-06-10T11:47:28;3.38;;;3.08;;
30384;SDS011;17181;51.002;4.096;2023-06-10T11:49:57;3.60;;;3.30;;
30384;SDS011;17181;51.002;4.096;2023-06-10T11:52:27;4.03;;;3.53;;
30384;SDS011;17181;51.002;4.096;2023-06-10T11:55:03;15.57;;;4.80;;
30384;SDS011;17181;51.002;4.096;2023-06-10T11:57:33;4.00;;;3.70;;
30384;SDS011;17181;51.002;4.096;2023-06-10T12:00:06;18.33;;;4.20;;
30384;SDS011;17181;51.002;4.096;2023-06-10T12:02:37;6.57;;;3.80;;
30384;SDS011;17181;51.002;4.096;2023-06-10T12:05:14;4.85;;;4.25;;
30384;SDS011;17181;51.002;4.096;2023-06-10T12:07:41;3.88;;;3.58;;
30384;SDS011;17181;51.002;4.096;2023-06-10T12:10:08;5.60;;;3.70;;
30384;SDS011;17181;51.002;4.096;2023-06-10T12:12:35;7.93;;;4.35;;
30384;SDS011;17181;51.002;4.096;2023-06-10T12:15:04;6.85;;;3.90;;
30384;SDS011;17181;51.002;4.096;2023-06-10T12:19:58;10.35;;;4.32;;
30384;SDS011;17181;51.002;4.096;2023-06-10T12:22:25;5.38;;;3.83;;
30384;SDS011;17181;51.002;4.096;2023-06-10T12:25:01;4.55;;;4.15;;
30384;SDS011;17181;51.002;4.096;2023-06-10T12:27:30;14.27;;;4.78;;
30384;SDS011;17181;51.002;4.096;2023-06-10T12:30:03;8.52;;;4.32;;
30384;SDS011;17181;51.002;4.096;2023-06-10T12:32:35;5.18;;;4.18;;
30384;SDS011;17181;51.002;4.096;2023-06-10T12:35:03;4.13;;;3.72;;
30384;SDS011;17181;51.002;4.096;2023-06-10T12:37:30;6.50;;;4.38;;
30384;SDS011;17181;51.002;4.096;2023-06-10T12:39:59;5.63;;;4.43;;
30384;SDS011;17181;51.002;4.096;2023-06-10T12:42:26;4.53;;;3.53;;
30384;SDS011;17181;51.002;4.096;2023-06-10T12:44:55;6.03;;;4.20;;
30384;SDS011;17181;51.002;4.096;2023-06-10T12:47:32;3.60;;;3.30;;
30384;SDS011;17181;51.002;4.096;2023-06-10T12:50:03;9.50;;;4.53;;
30384;SDS011;17181;51.002;4.096;2023-06-10T12:52:29;6.00;;;3.90;;
30384;SDS011;17181;51.002;4.096;2023-06-10T12:54:56;5.05;;;3.90;;
30384;SDS011;17181;51.002;4.096;2023-06-10T12:57:22;5.93;;;4.10;;
30384;SDS011;17181;51.002;4.096;2023-06-10T12:59:48;8.90;;;4.43;;
30384;SDS011;17181;51.002;4.096;2023-06-10T13:02:21;4.22;;;3.85;;
30384;SDS011;17181;51.002;4.096;2023-06-10T13:04:49;3.78;;;3.45;;
30384;SDS011;17181;51.002;4.096;2023-06-10T13:07:15;7.53;;;4.07;;
30384;SDS011;17181;51.002;4.096;2023-06-10T13:09:41;5.00;;;4.50;;
30384;SDS011;17181;51.002;4.096;2023-06-10T13:12:14;5.72;;;4.43;;
30384;SDS011;17181;51.002;4.096;2023-06-10T13:14:39;5.00;;;4.55;;
30384;SDS011;17181;51.002;4.096;2023-06-10T13:17:05;4.82;;;4.43;;
30384;SDS011;17181;51.002;4.096;2023-06-10T13:19:32;7.47;;;4.70;;
30384;SDS011;17181;51.002;4.096;2023-06-10T13:21:58;4.90;;;4.00;;
30384;SDS011;17181;51.002;4.096;2023-06-10T13:24:24;5.25;;;4.75;;
30384;SDS011;17181;51.002;4.096;2023-06-10T13:26:51;4.78;;;4.13;;
30384;SDS011;17181;51.002;4.096;2023-06-10T13:29:18;4.72;;;3.83;;
30384;SDS011;17181;51.002;4.096;2023-06-10T13:31:43;4.32;;;3.92;;
30384;SDS011;17181;51.002;4.096;2023-06-10T13:34:09;4.25;;;3.88;;
30384;SDS011;17181;51.002;4.096;2023-06-10T13:36:36;6.80;;;3.63;;
30384;SDS011;17181;51.002;4.096;2023-06-10T13:39:01;6.65;;;3.92;;
30384;SDS011;17181;51.002;4.096;2023-06-10T13:41:27;4.43;;;4.03;;
30384;SDS011;17181;51.002;4.096;2023-06-10T13:43:54;4.85;;;4.35;;
30384;SDS011;17181;51.002;4.096;2023-06-10T13:46:20;7.85;;;4.35;;
30384;SDS011;17181;51.002;4.096;2023-06-10T13:48:49;4.75;;;4.28;;
30384;SDS011;17181;51.002;4.096;2023-06-10T13:51:18;6.35;;;4.28;;
30384;SDS011;17181;51.002;4.096;2023-06-10T13:53:46;3.90;;;3.60;;
30384;SDS011;17181;51.002;4.096;2023-06-10T13:56:15;4.57;;;3.92;;
30384;SDS011;17181;51.002;4.096;2023-06-10T13:58:41;4.18;;;3.88;;
30384;SDS011;17181;51.002;4.096;2023-06-10T14:01:11;6.68;;;4.72;;
30384;SDS011;17181;51.002;4.096;2023-06-10T14:03:37;5.03;;;4.13;;
30384;SDS011;17181;51.002;4.096;2023-06-10T14:06:03;4.18;;;3.80;;
30384;SDS011;17181;51.002;4.096;2023-06-10T14:08:29;3.33;;;3.03;;
30384;SDS011;17181;51.002;4.096;2023-06-10T14:10:55;4.07;;;3.78;;
30384;SDS011;17181;51.002;4.096;2023-06-10T14:13:21;3.75;;;3.45;;
30384;SDS011;17181;51.002;4.096;2023-06-10T14:15:47;3.53;;;3.33;;
30384;SDS011;17181;51.002;4.096;2023-06-10T14:18:13;4.65;;;4.15;;
30384;SDS011;17181;51.002;4.096;2023-06-10T14:20:39;5.85;;;5.25;;
30384;SDS011;17181;51.002;4.096;2023-06-10T14:23:05;4.18;;;3.85;;
30384;SDS011;17181;51.002;4.096;2023-06-10T14:25:30;6.82;;;4.13;;
30384;SDS011;17181;51.002;4.096;2023-06-10T14:27:56;4.07;;;3.65;;
30384;SDS011;17181;51.002;4.096;2023-06-10T14:30:23;7.72;;;4.85;;
30384;SDS011;17181;51.002;4.096;2023-06-10T14:32:49;4.55;;;4.15;;
30384;SDS011;17181;51.002;4.096;2023-06-10T14:35:18;5.25;;;3.90;;
30384;SDS011;17181;51.002;4.096;2023-06-10T14:37:45;4.38;;;4.07;;
30384;SDS011;17181;51.002;4.096;2023-06-10T14:40:11;9.05;;;3.75;;
30384;SDS011;17181;51.002;4.096;2023-06-10T14:42:38;4.72;;;3.72;;
30384;SDS011;17181;51.002;4.096;2023-06-10T14:45:04;11.05;;;3.83;;
30384;SDS011;17181;51.002;4.096;2023-06-10T14:47:31;5.47;;;4.20;;
30384;SDS011;17181;51.002;4.096;2023-06-10T14:49:56;4.57;;;3.88;;
30384;SDS011;17181;51.002;4.096;2023-06-10T14:52:22;4.60;;;4.20;;
30384;SDS011;17181;51.002;4.096;2023-06-10T14:54:48;5.40;;;4.93;;
30384;SDS011;17181;51.002;4.096;2023-06-10T14:57:14;7.75;;;4.47;;
30384;SDS011;17181;51.002;4.096;2023-06-10T14:59:40;5.30;;;4.53;;
30384;SDS011;17181;51.002;4.096;2023-06-10T15:02:06;4.43;;;4.03;;
30384;SDS011;17181;51.002;4.096;2023-06-10T15:04:32;4.32;;;3.88;;
30384;SDS011;17181;51.002;4.096;2023-06-10T15:06:58;5.70;;;4.25;;
30384;SDS011;17181;51.002;4.096;2023-06-10T15:09:24;5.90;;;4.28;;
30384;SDS011;17181;51.002;4.096;2023-06-10T15:11:50;4.15;;;3.50;;
30384;SDS011;17181;51.002;4.096;2023-06-10T15:14:16;4.68;;;4.18;;
30384;SDS011;17181;51.002;4.096;2023-06-10T15:16:43;4.53;;;4.13;;
30384;SDS011;17181;51.002;4.096;2023-06-10T15:19:09;5.35;;;4.18;;
30384;SDS011;17181;51.002;4.096;2023-06-10T15:21:36;9.35;;;4.03;;
30384;SDS011;17181;51.002;4.096;2023-06-10T15:24:03;4.72;;;3.67;;
30384;SDS011;17181;51.002;4.096;2023-06-10T15:26:29;5.60;;;3.47;;
30384;SDS011;17181;51.002;4.096;2023-06-10T15:28:55;6.90;;;4.20;;
30384;SDS011;17181;51.002;4.096;2023-06-10T15:31:21;4.85;;;4.15;;
30384;SDS011;17181;51.002;4.096;2023-06-10T15:33:50;4.50;;;4.10;;
